Weather reports worldwide

Advertisment
Herwijnen aws, Netherlands (6356): temperature & dewpoint: 09.12.2019 00:00:00 - 15.12.2019 00:00:00 (CET)Herwijnen aws, Netherlands (6356): temperature 5cm: 09.12.2019 00:00:00 - 15.12.2019 00:00:00 (CET)Herwijnen aws, Netherlands (6356): wind speed & gusts: 09.12.2019 00:00:00 - 15.12.2019 00:00:00 (CET)Herwijnen aws, Netherlands (6356): wind direction: 09.12.2019 00:00:00 - 15.12.2019 00:00:00 (CET)Herwijnen aws, Netherlands (6356): reduced air pressure: 09.12.2019 00:00:00 - 15.12.2019 00:00:00 (CET)Herwijnen aws, Netherlands (6356): precipitation: 09.12.2019 00:00:00 - 15.12.2019 00:00:00 (CET)
Date & Time tt [°C] td [°C] tt 5cm [°C] ff [km/h] ff [kn] fx [km/h] fx [kn] dd ppp [hPa] rr [mm]
15.12.2019 00:00:00 4,6 2,3 4,0 22 12 29 16 S 995,7 0,0
14.12.2019 23:00:00 5,0 1,8 3,9 18 10 29 16 S 996,5 0,0
14.12.2019 22:00:00 4,5 1,3 3,6 22 12 29 16 SSW 997,2 0,0
14.12.2019 21:00:00 4,4 0,9 3,5 18 10 36 19 SW 997,2 0,0
14.12.2019 20:00:00 5,5 0,6 4,5 25 14 40 21 WSW 996,6 0,0
14.12.2019 19:00:00 6,0 0,7 4,8 29 16 54 29 WSW 995,4 0,0
14.12.2019 18:00:00 6,4 1,9 5,6 43 23 65 35 W 994,4 0,0
14.12.2019 17:00:00 6,5 3,8 5,7 40 21 72 39 W 992,6 0,1
14.12.2019 16:00:00 7,8 4,3 7,0 43 23 65 35 SW 989,8 0,0
14.12.2019 15:00:00 6,4 4,8 5,9 25 14 54 29 SSW 989,8 2,0
14.12.2019 14:00:00 7,6 3,1 7,2 25 14 43 23 SW 990,5 0,0
14.12.2019 13:00:00 7,3 3,2 7,0 29 16 50 27 WSW 990,5 0,0
14.12.2019 12:00:00 7,2 2,7 6,8 36 19 58 31 WSW 990,0 0,0
14.12.2019 11:00:00 7,3 3,3 6,7 36 19 58 31 W 989,0 0,0
14.12.2019 10:00:00 6,6 4,0 6,1 29 16 47 25 WSW 987,7 0,0
14.12.2019 09:00:00 5,9 4,2 5,1 29 16 40 21 WSW 986,3 0,0
14.12.2019 08:00:00 5,7 4,0 5,0 29 16 40 21 WSW 985,0 0,0
14.12.2019 07:00:00 5,3 4,0 4,8 25 14 36 19 WSW 983,6 0,0
14.12.2019 06:00:00 5,1 4,6 4,9 18 10 25 14 WSW 982,3 0,9
14.12.2019 05:00:00 5,2 4,6 4,9 14 8 22 12 W 981,4 1,2
14.12.2019 04:00:00 5,1 4,7 5,0 4 2 25 14 SW 981,0 1,5
14.12.2019 03:00:00 5,4 4,2 5,1 18 10 36 19 SSW 981,4 0,5
14.12.2019 02:00:00 5,7 3,1 5,1 22 12 32 18 SSW 981,9 0,0
14.12.2019 01:00:00 5,5 3,3 5,0 18 10 36 19 SSW 982,4 0,0
14.12.2019 00:00:00 6,0 3,3 5,4 18 10 29 16 SSW 983,1 0,0
13.12.2019 23:00:00 6,4 3,6 5,9 22 12 40 21 SSW 983,2 0,0
13.12.2019 22:00:00 6,4 4,6 6,0 25 14 36 19 SW 983,7 0,0
13.12.2019 21:00:00 6,4 4,7 5,4 22 12 32 18 SW 983,6 0,0
13.12.2019 20:00:00 6,7 4,9 6,2 29 16 43 23 WSW 983,8 0,4
13.12.2019 19:00:00 6,6 5,1 6,0 22 12 32 18 WSW 983,2 0,2
13.12.2019 18:00:00 6,7 5,6 6,3 18 10 25 14 W 982,5 0,0
13.12.2019 17:00:00 6,0 5,3 5,2 14 8 22 12 W 981,6 0,0
13.12.2019 16:00:00 4,7 4,6 4,7 11 6 18 10 W 980,3 0,3
13.12.2019 15:00:00 4,6 4,3 4,7 14 8 18 10 WNW 978,9 0,8
13.12.2019 14:00:00 4,4 4,0 4,5 14 8 18 10 WNW 977,7 0,1
13.12.2019 13:00:00 4,3 4,0 4,6 7 4 14 8 NNW 976,1 0,0
13.12.2019 12:00:00 4,1 3,8 4,3 7 4 18 10 NE 974,9 0,0
13.12.2019 11:00:00 3,7 3,7 3,7 11 6 22 12 E 973,9 0,4
13.12.2019 10:00:00 3,5 3,2 3,5 14 8 29 16 E 973,0 0,3
13.12.2019 09:00:00 3,5 3,2 3,5 18 10 29 16 E 972,4 0,7
13.12.2019 08:00:00 3,4 3,1 3,4 18 10 29 16 E 972,2 0,8
13.12.2019 07:00:00 3,6 3,3 3,6 18 10 29 16 ESE 972,4 0,1
13.12.2019 06:00:00 3,9 3,2 3,8 14 8 32 18 SE 973,0 1,0
13.12.2019 05:00:00 4,1 2,9 4,0 22 12 47 25 SE 974,1 0,0
13.12.2019 04:00:00 4,0 2,9 3,9 25 14 43 23 SSE 975,3 0,0
13.12.2019 03:00:00 4,1 2,9 3,9 25 14 47 25 SSE 976,5 0,0
13.12.2019 02:00:00 4,1 2,9 4,0 32 18 50 27 SSE 977,8 0,7
13.12.2019 01:00:00 4,3 3,0 4,1 29 16 50 27 SSE 979,4 1,1
13.12.2019 00:00:00 4,5 2,8 4,2 32 18 50 27 SSE 981,2 0,8
12.12.2019 23:00:00 4,9 2,2 4,6 29 16 47 25 SSE 982,8 0,0
12.12.2019 22:00:00 5,2 1,6 4,8 29 16 47 25 SSE 984,7 0,0
12.12.2019 21:00:00 5,0 1,4 4,6 25 14 47 25 SSE 986,5 0,0
12.12.2019 20:00:00 4,6 1,4 4,3 29 16 47 25 SSE 988,2 0,0
12.12.2019 19:00:00 4,4 1,3 4,0 25 14 40 21 SSE 989,7 0,0
12.12.2019 18:00:00 4,6 1,3 4,2 25 14 40 21 SSE 991,4 0,0
12.12.2019 17:00:00 4,6 1,8 4,3 22 12 43 23 SSE 992,8 0,0
12.12.2019 16:00:00 4,9 2,1 4,6 25 14 36 19 SSE 994,4 0,0
12.12.2019 15:00:00 5,4 2,6 5,1 25 14 36 19 S 995,5 0,0
12.12.2019 14:00:00 5,6 2,9 5,5 22 12 32 18 S 997,0 0,0
12.12.2019 13:00:00 5,3 2,9 5,7 22 12 29 16 S 998,4 0,0
12.12.2019 12:00:00 4,9 3,1 5,2 14 8 29 16 S 999,6 0,0
12.12.2019 11:00:00 3,5 2,5 3,7 18 10 29 16 SSW 1000,7 0,0
12.12.2019 10:00:00 2,9 2,4 2,5 18 10 25 14 SSW 1001,2 0,0
12.12.2019 09:00:00 2,0 1,9 1,4 11 6 22 12 SSW 1001,4 0,0
12.12.2019 08:00:00 2,4 2,2 1,6 14 8 22 12 SSW 1001,5 0,0
12.12.2019 07:00:00 3,0 2,6 2,0 14 8 22 12 SW 1001,5 0,0
12.12.2019 06:00:00 3,5 3,0 2,8 14 8 25 14 SW 1001,4 0,0
12.12.2019 05:00:00 4,1 3,5 3,6 14 8 25 14 SSW 1001,4 0,0
12.12.2019 04:00:00 4,8 4,1 4,7 14 8 22 12 SSW 1001,7 0,0
12.12.2019 03:00:00 4,4 3,9 3,8 11 6 18 10 S 1001,6 0,0
12.12.2019 02:00:00 4,2 3,6 3,6 14 8 22 12 S 1001,7 0,0
12.12.2019 01:00:00 4,2 3,7 3,2 14 8 22 12 S 1001,9 0,0
12.12.2019 00:00:00 4,7 4,1 4,1 14 8 25 14 S 1002,3 0,0
11.12.2019 23:00:00 4,9 4,3 4,2 14 8 22 12 S 1002,8 0,0
11.12.2019 22:00:00 5,3 4,7 4,7 14 8 25 14 SSW 1003,2 0,0
11.12.2019 21:00:00 5,2 4,8 4,5 14 8 22 12 S 1003,5 0,0
11.12.2019 20:00:00 4,7 4,5 3,8 11 6 18 10 S 1003,8 0,0
11.12.2019 19:00:00 4,6 4,4 3,9 11 6 14 8 S 1004,2 0,0
11.12.2019 18:00:00 4,9 4,6 4,3 11 6 14 8 S 1004,3 0,0
11.12.2019 17:00:00 5,6 5,0 5,2 11 6 18 10 S 1004,5 0,0
11.12.2019 16:00:00 5,8 5,0 5,2 7 4 18 10 SSW 1004,8 0,0
11.12.2019 15:00:00 6,4 5,4 6,3 11 6 22 12 SSW 1005,2 0,0
11.12.2019 14:00:00 6,7 5,6 6,7 18 10 25 14 SSW 1005,5 0,0
11.12.2019 13:00:00 6,9 6,1 7,0 14 8 25 14 SW 1006,3 0,0
11.12.2019 12:00:00 6,7 6,1 6,9 14 8 25 14 SSW 1007,0 0,0
11.12.2019 11:00:00 6,6 6,2 6,6 14 8 25 14 SSW 1007,9 0,0
11.12.2019 10:00:00 6,5 6,1 6,4 14 8 22 12 SSW 1007,9 0,0
11.12.2019 09:00:00 6,4 6,1 6,3 14 8 22 12 SW 1008,2 0,0
11.12.2019 08:00:00 6,4 6,1 6,3 18 10 25 14 SSW 1008,3 0,0
11.12.2019 07:00:00 6,4 6,1 6,3 18 10 29 16 SSW 1008,6 0,3
11.12.2019 06:00:00 6,5 6,1 6,4 14 8 29 16 SSW 1008,5 0,3
11.12.2019 05:00:00 6,6 6,0 6,4 22 12 40 21 SW 1008,7 0,3
11.12.2019 04:00:00 6,7 5,8 6,4 25 14 40 21 SSW 1008,7 1,1
11.12.2019 03:00:00 6,6 5,6 6,4 25 14 43 23 SSW 1009,0 0,0
11.12.2019 02:00:00 7,0 5,0 6,8 25 14 54 29 S 1008,9 0,0
11.12.2019 01:00:00 7,7 3,8 7,2 25 14 43 23 SSW 1009,3 0,0
11.12.2019 00:00:00 7,5 2,9 6,8 25 14 43 23 S 1010,0 0,0
10.12.2019 23:00:00 7,0 2,5 6,5 25 14 50 27 S 1010,6 0,0
10.12.2019 22:00:00 7,0 2,2 6,4 32 18 50 27 S 1011,2 0,0
10.12.2019 21:00:00 6,5 1,7 5,9 29 16 54 29 S 1012,2 0,0
10.12.2019 20:00:00 6,0 1,7 5,5 29 16 50 27 S 1013,2 0,0
10.12.2019 19:00:00 5,7 1,6 5,1 32 18 50 27 S 1014,3 0,0
10.12.2019 18:00:00 5,7 1,4 5,2 29 16 47 25 S 1015,7 0,0
10.12.2019 17:00:00 5,8 1,3 5,3 25 14 40 21 S 1016,9 0,0
10.12.2019 16:00:00 6,0 1,6 5,5 25 14 43 23 S 1017,9 0,0
10.12.2019 15:00:00 5,9 1,3 5,4 25 14 43 23 S 1019,3 0,0
10.12.2019 14:00:00 6,1 1,9 6,0 22 12 43 23 S 1020,5 0,0
10.12.2019 13:00:00 6,0 1,2 6,0 32 18 47 25 SSW 1021,8 0,0
10.12.2019 12:00:00 5,2 1,6 5,3 22 12 36 19 SSW 1023,0 0,0
10.12.2019 11:00:00 4,6 1,7 4,3 18 10 29 16 SSW 1024,0 0,0
10.12.2019 10:00:00 3,4 1,8 2,7 14 8 29 16 S 1024,2 0,0
10.12.2019 09:00:00 2,7 1,8 1,6 14 8 18 10 SSW 1024,4 0,0
10.12.2019 08:00:00 2,4 1,6 1,6 14 8 18 10 SSW 1024,4 0,0
10.12.2019 07:00:00 1,7 1,2 -1,4 4 2 11 6 SSW 1024,5 0,0
10.12.2019 06:00:00 1,6 0,9 0,4 7 4 18 10 WNW 1024,2 0,0
10.12.2019 05:00:00 2,0 1,3 0,0 4 2 14 8 SW 1024,0 0,0
10.12.2019 04:00:00 3,5 1,5 2,2 11 6 14 8 WSW 1023,8 0,0
10.12.2019 03:00:00 1,9 1,1 -0,1 11 6 18 10 WSW 1023,3 0,0
10.12.2019 02:00:00 3,4 2,1 2,9 11 6 36 19 W 1022,5 0,0
10.12.2019 01:00:00 2,3 0,4 0,4 11 6 14 8 W 1021,8 0,0
10.12.2019 00:00:00 5,0 1,4 4,2 11 6 25 14 NW 1021,0 0,0
09.12.2019 23:00:00 3,4 1,7 2,5 14 8 25 14 W 1019,7 0,0
09.12.2019 22:00:00 5,0 2,7 4,2 22 12 29 16 WNW 1018,7 0,0
09.12.2019 21:00:00 5,3 2,2 4,5 18 10 29 16 WNW 1017,2 0,0
09.12.2019 20:00:00 5,5 1,9 4,5 18 10 32 18 NW 1015,5 0,0
09.12.2019 19:00:00 6,2 1,4 5,3 22 12 36 19 NW 1013,7 0,0
09.12.2019 18:00:00 6,5 2,5 5,6 22 12 43 23 NNW 1011,5 0,0
09.12.2019 17:00:00 7,3 4,1 6,6 25 14 47 25 NNW 1008,9 0,1
09.12.2019 16:00:00 7,0 4,3 6,6 29 16 61 33 NNW 1006,1 2,2
09.12.2019 15:00:00 7,7 6,6 7,7 18 10 43 23 NW 1002,6 0,1
09.12.2019 14:00:00 7,3 6,0 7,1 11 6 25 14 WNW 1000,0 1,9
09.12.2019 13:00:00 7,8 6,4 7,6 14 8 36 19 W 998,6 0,3
09.12.2019 12:00:00 7,7 6,8 7,7 14 8 32 18 WSW 998,1 0,5
09.12.2019 11:00:00 7,7 6,3 7,8 22 12 32 18 W 997,4 0,1
09.12.2019 10:00:00 6,5 5,7 6,1 18 10 25 14 W 995,8 0,0
09.12.2019 09:00:00 6,2 5,7 5,7 18 10 29 16 W 994,2 0,0
09.12.2019 08:00:00 6,1 5,7 5,9 11 6 22 12 WSW 992,8 0,0
09.12.2019 07:00:00 5,5 5,1 5,4 14 8 36 19 SSE 992,0 0,6
09.12.2019 06:00:00 6,1 4,7 5,7 22 12 47 25 SSW 992,7 1,0
09.12.2019 05:00:00 7,1 4,3 6,4 25 14 43 23 SSW 993,0 0,0
09.12.2019 04:00:00 6,7 4,2 6,0 25 14 40 21 SSW 993,8 0,0
09.12.2019 03:00:00 6,6 4,8 6,0 29 16 43 23 SSW 994,7 0,5
09.12.2019 02:00:00 7,0 4,4 6,3 29 16 47 25 SSW 995,4 0,0
09.12.2019 01:00:00 7,2 4,2 6,4 29 16 43 23 SSW 995,8 0,0
09.12.2019 00:00:00 7,3 3,9 6,3 32 18 47 25 SW 996,4 0,0

tt = temperature
td = dewpoint
tt 5cm = temperature 5cm
ff = wind speed
fx = gusts
dd = wind direction
ppp = reduced air pressure
rr = precipitation

Next stations